createdAt,value
2023-05-21T00:01:21.715Z,15.53
2023-05-21T00:03:54.467Z,15.49
2023-05-21T00:06:26.650Z,15.46
2023-05-21T00:08:58.577Z,15.47
2023-05-21T00:11:30.818Z,15.46
2023-05-21T00:14:03.035Z,15.46
2023-05-21T00:16:35.090Z,15.47
2023-05-21T00:19:08.404Z,15.47
2023-05-21T00:21:40.220Z,15.48
2023-05-21T00:24:12.083Z,15.50
2023-05-21T00:26:43.969Z,15.50
2023-05-21T00:29:15.896Z,15.53
2023-05-21T00:31:48.107Z,15.54
2023-05-21T00:34:20.280Z,15.54
2023-05-21T00:36:53.698Z,15.52
2023-05-21T00:39:25.678Z,15.52
2023-05-21T00:41:57.747Z,15.48
2023-05-21T00:44:31.386Z,15.43
2023-05-21T00:47:03.924Z,15.39
2023-05-21T00:49:36.017Z,15.33
2023-05-21T00:52:08.281Z,15.27
2023-05-21T00:54:40.152Z,15.22
2023-05-21T00:57:12.220Z,15.19
2023-05-21T00:59:44.006Z,15.20
2023-05-21T01:02:18.749Z,15.21
2023-05-21T01:04:50.980Z,15.22
2023-05-21T01:07:23.574Z,15.19
2023-05-21T01:09:55.253Z,15.16
2023-05-21T01:12:27.064Z,15.21
2023-05-21T01:15:00.770Z,15.24
2023-05-21T01:17:34.529Z,15.28
2023-05-21T01:20:10.692Z,15.30
2023-05-21T01:22:56.078Z,15.34
2023-05-21T01:25:28.965Z,15.39
2023-05-21T01:28:00.896Z,15.44
2023-05-21T01:30:33.081Z,15.45
2023-05-21T01:33:07.394Z,15.44
2023-05-21T01:35:43.260Z,15.41
2023-05-21T01:38:26.383Z,15.41
2023-05-21T01:41:03.223Z,15.38
2023-05-21T01:43:40.385Z,15.40
2023-05-21T01:46:14.780Z,15.38
2023-05-21T01:48:46.610Z,15.37
2023-05-21T01:51:18.347Z,15.40
2023-05-21T01:53:50.371Z,15.45
2023-05-21T01:56:23.816Z,15.49
2023-05-21T01:58:59.992Z,15.54
2023-05-21T02:01:32.203Z,15.58
2023-05-21T02:04:04.102Z,15.62
2023-05-21T02:06:38.729Z,15.67
2023-05-21T02:09:10.886Z,15.71
2023-05-21T02:11:42.790Z,15.73
2023-05-21T02:14:14.607Z,15.73
2023-05-21T02:16:47.301Z,15.72
2023-05-21T02:19:19.857Z,15.70
2023-05-21T02:21:52.345Z,15.73
2023-05-21T02:24:24.664Z,15.76
2023-05-21T02:26:56.476Z,15.80
2023-05-21T02:29:28.315Z,15.85
2023-05-21T02:32:00.320Z,15.89
2023-05-21T02:34:33.266Z,15.93
2023-05-21T02:37:05.151Z,15.97
2023-05-21T02:39:37.556Z,16.03
2023-05-21T02:42:09.454Z,16.06
2023-05-21T02:44:41.930Z,16.09
2023-05-21T02:47:14.084Z,16.13
2023-05-21T02:49:47.039Z,16.16
2023-05-21T02:52:19.808Z,16.19
2023-05-21T02:54:52.770Z,16.24
2023-05-21T02:57:25.064Z,16.29
2023-05-21T02:59:56.878Z,16.35
2023-05-21T03:02:28.831Z,16.41
2023-05-21T03:05:01.001Z,16.45
2023-05-21T03:07:33.364Z,16.52
2023-05-21T03:10:06.070Z,16.56
2023-05-21T03:12:38.318Z,16.60
2023-05-21T03:15:11.278Z,16.67
2023-05-21T03:17:44.732Z,16.71
2023-05-21T03:20:18.515Z,16.72
2023-05-21T03:22:50.408Z,16.74
2023-05-21T03:25:24.544Z,16.78
2023-05-21T03:27:56.964Z,16.81
2023-05-21T03:30:44.517Z,16.89
2023-05-21T03:33:27.247Z,16.99
2023-05-21T03:35:59.133Z,17.09
2023-05-21T03:38:33.762Z,17.18
2023-05-21T03:41:07.370Z,17.27
2023-05-21T03:43:39.494Z,17.41
2023-05-21T03:46:11.413Z,17.59
2023-05-21T03:49:01.451Z,17.74
2023-05-21T03:51:34.610Z,17.95
2023-05-21T03:54:06.364Z,18.13
2023-05-21T03:56:39.014Z,18.33
2023-05-21T03:59:10.860Z,18.56
2023-05-21T04:01:42.910Z,18.72
2023-05-21T04:04:16.311Z,18.79
2023-05-21T04:06:48.405Z,18.80
2023-05-21T04:09:20.409Z,18.80
2023-05-21T04:11:52.495Z,18.86
2023-05-21T04:14:24.784Z,18.89
2023-05-21T04:16:57.048Z,18.90
2023-05-21T04:19:29.118Z,18.88
2023-05-21T04:22:01.242Z,18.84
2023-05-21T04:24:33.791Z,18.75
2023-05-21T04:27:09.058Z,18.68
2023-05-21T04:29:42.526Z,18.65
2023-05-21T04:32:15.374Z,18.63
2023-05-21T04:34:47.388Z,18.62
2023-05-21T04:37:19.157Z,18.57
2023-05-21T04:39:50.992Z,18.55
2023-05-21T04:42:24.380Z,18.55
2023-05-21T04:44:56.514Z,18.54
2023-05-21T04:47:30.532Z,18.57
2023-05-21T04:50:05.173Z,18.62
2023-05-21T04:52:38.535Z,18.68
2023-05-21T04:55:10.730Z,18.68
2023-05-21T04:57:42.667Z,18.69
2023-05-21T05:00:15.025Z,18.71
2023-05-21T05:02:47.477Z,18.70
2023-05-21T05:05:19.762Z,18.72
2023-05-21T05:07:51.816Z,18.76
2023-05-21T05:10:24.164Z,18.81
2023-05-21T05:12:56.575Z,18.88
2023-05-21T05:15:28.719Z,18.93
2023-05-21T05:18:02.240Z,19.00
2023-05-21T05:20:34.179Z,19.07
2023-05-21T05:23:06.034Z,19.14
2023-05-21T05:25:38.397Z,19.20
2023-05-21T05:28:10.893Z,19.25
2023-05-21T05:30:42.901Z,19.32
2023-05-21T05:33:16.466Z,19.40
2023-05-21T05:35:48.841Z,19.46
2023-05-21T05:38:20.924Z,19.54
2023-05-21T05:40:52.802Z,19.61
2023-05-21T05:43:26.887Z,19.64
2023-05-21T05:46:00.316Z,19.67
2023-05-21T05:48:33.019Z,19.74
2023-05-21T05:51:06.425Z,19.79
2023-05-21T05:53:38.894Z,19.85
2023-05-21T05:56:10.976Z,19.91
2023-05-21T05:58:43.152Z,19.93
2023-05-21T06:01:16.642Z,19.94
2023-05-21T06:03:48.533Z,20.00
2023-05-21T06:06:21.694Z,20.08
2023-05-21T06:08:53.979Z,20.17
2023-05-21T06:11:26.186Z,20.24
2023-05-21T06:13:59.990Z,20.32
2023-05-21T06:16:32.069Z,20.39
2023-05-21T06:19:03.994Z,20.47
2023-05-21T06:21:35.890Z,20.54
2023-05-21T06:24:08.494Z,20.61
2023-05-21T06:26:40.371Z,20.66
2023-05-21T06:29:14.251Z,20.72
2023-05-21T06:31:46.554Z,20.79
2023-05-21T06:34:18.522Z,20.88
2023-05-21T06:36:50.533Z,20.98
2023-05-21T06:39:22.797Z,21.05
2023-05-21T06:41:55.185Z,21.11
2023-05-21T06:44:47.021Z,21.17
2023-05-21T06:47:21.152Z,21.25
2023-05-21T06:49:53.727Z,21.31
2023-05-21T06:52:26.904Z,21.37
2023-05-21T06:54:58.918Z,21.44
2023-05-21T06:57:33.723Z,21.55
2023-05-21T07:00:07.027Z,21.64
2023-05-21T07:02:41.414Z,21.72
2023-05-21T07:05:13.440Z,21.81
2023-05-21T07:07:46.417Z,21.88
2023-05-21T07:10:18.412Z,21.95
2023-05-21T07:12:52.106Z,22.02
2023-05-21T07:15:25.339Z,22.09
2023-05-21T07:17:57.634Z,22.16
2023-05-21T07:20:29.472Z,22.25
2023-05-21T07:23:03.319Z,22.30
2023-05-21T07:25:36.936Z,22.38
2023-05-21T07:28:09.092Z,22.49
2023-05-21T07:30:41.826Z,22.58
2023-05-21T07:33:15.425Z,22.62
2023-05-21T07:35:47.597Z,22.67
2023-05-21T07:38:19.414Z,22.71
2023-05-21T07:40:51.620Z,22.72
2023-05-21T07:43:23.493Z,22.73
2023-05-21T07:45:55.359Z,22.79
2023-05-21T07:48:27.192Z,22.83
2023-05-21T07:51:04.193Z,22.84
2023-05-21T07:53:37.063Z,22.79
2023-05-21T07:56:10.977Z,22.77
2023-05-21T07:58:44.361Z,22.78
2023-05-21T08:01:17.459Z,22.82
2023-05-21T08:03:49.721Z,22.85
2023-05-21T08:06:24.001Z,22.90
2023-05-21T08:08:55.898Z,22.93
2023-05-21T08:11:28.876Z,23.00
2023-05-21T08:14:00.964Z,23.05
2023-05-21T08:16:35.126Z,23.14
2023-05-21T08:19:06.979Z,23.19
2023-05-21T08:21:39.100Z,23.23
2023-05-21T08:24:11.372Z,23.26
2023-05-21T08:26:44.946Z,23.32
2023-05-21T08:29:16.907Z,23.38
2023-05-21T08:31:49.603Z,23.43
2023-05-21T08:34:21.508Z,23.49
2023-05-21T08:36:55.006Z,23.56
2023-05-21T08:39:28.446Z,23.59
2023-05-21T08:42:04.916Z,23.60
2023-05-21T08:44:38.350Z,23.64
2023-05-21T08:47:10.161Z,23.70
2023-05-21T08:49:43.200Z,23.77
2023-05-21T08:52:15.082Z,23.82
2023-05-21T08:54:48.321Z,23.87
2023-05-21T08:57:20.694Z,23.94
2023-05-21T08:59:52.839Z,24.03
2023-05-21T09:02:26.504Z,24.10
2023-05-21T09:04:59.319Z,24.13
2023-05-21T09:07:31.904Z,24.16
2023-05-21T09:10:14.948Z,24.24
2023-05-21T09:12:48.672Z,24.34
2023-05-21T09:15:21.046Z,24.45
2023-05-21T09:17:53.020Z,24.56
2023-05-21T09:20:28.527Z,24.63
2023-05-21T09:23:04.251Z,24.65
2023-05-21T09:25:37.104Z,24.64
2023-05-21T09:28:17.918Z,24.66
2023-05-21T09:30:53.626Z,24.68
2023-05-21T09:33:29.579Z,24.72
2023-05-21T09:36:02.282Z,24.73
2023-05-21T09:38:35.537Z,24.74
2023-05-21T09:41:07.522Z,24.78
2023-05-21T09:43:39.982Z,24.87
2023-05-21T09:46:12.357Z,24.97
2023-05-21T09:48:44.750Z,24.99
2023-05-21T09:51:22.184Z,24.90
2023-05-21T09:53:58.526Z,24.73
2023-05-21T09:56:32.696Z,24.42
2023-05-21T09:59:05.293Z,24.10
2023-05-21T10:01:38.965Z,23.72
2023-05-21T10:04:10.807Z,23.40
2023-05-21T10:06:44.688Z,23.23
2023-05-21T10:09:17.158Z,23.10
2023-05-21T10:11:48.881Z,23.04
2023-05-21T10:14:24.126Z,23.05
2023-05-21T10:16:56.314Z,23.08
2023-05-21T10:19:28.168Z,23.12
2023-05-21T10:21:59.849Z,23.13
2023-05-21T10:24:32.107Z,23.15
2023-05-21T10:27:04.994Z,23.18
2023-05-21T10:29:37.282Z,23.18
2023-05-21T10:32:09.235Z,23.18
2023-05-21T10:34:41.894Z,23.18
2023-05-21T10:37:14.347Z,23.23
2023-05-21T10:39:47.234Z,23.32
2023-05-21T10:42:33.943Z,23.39
2023-05-21T10:45:15.864Z,23.43
2023-05-21T10:48:03.622Z,23.43
2023-05-21T10:51:03.633Z,23.45
2023-05-21T10:53:44.493Z,23.46
2023-05-21T10:56:24.666Z,23.49
2023-05-21T10:59:05.521Z,23.52
2023-05-21T11:01:38.997Z,23.58
2023-05-21T11:04:12.427Z,23.66
2023-05-21T11:06:49.233Z,23.69
2023-05-21T11:09:21.053Z,23.72
2023-05-21T11:12:01.146Z,23.75
2023-05-21T11:14:42.191Z,23.84
2023-05-21T11:17:16.783Z,23.97
2023-05-21T11:19:50.601Z,24.10
2023-05-21T11:22:27.208Z,24.19
2023-05-21T11:25:02.084Z,24.25
2023-05-21T11:27:38.997Z,24.25
2023-05-21T11:30:16.549Z,24.22
2023-05-21T11:33:12.484Z,24.18
2023-05-21T11:35:51.694Z,24.17
2023-05-21T11:38:23.859Z,24.13
2023-05-21T11:40:55.862Z,24.18
2023-05-21T11:43:28.225Z,24.16
2023-05-21T11:46:00.107Z,24.17
2023-05-21T11:48:32.739Z,24.18
2023-05-21T11:51:04.782Z,24.23
2023-05-21T11:53:38.569Z,24.29
2023-05-21T11:56:12.153Z,24.32
2023-05-21T11:58:44.294Z,24.31
2023-05-21T12:01:28.692Z,24.33
2023-05-21T12:04:00.597Z,24.39
2023-05-21T12:06:34.655Z,24.48
2023-05-21T12:09:06.385Z,24.56
2023-05-21T12:11:45.209Z,24.69
2023-05-21T12:14:17.025Z,24.81
2023-05-21T12:16:48.861Z,24.89
2023-05-21T12:19:20.989Z,24.96
2023-05-21T12:21:52.929Z,25.01
2023-05-21T12:24:24.736Z,25.01
2023-05-21T12:26:58.097Z,25.01
2023-05-21T12:29:31.925Z,25.01
2023-05-21T12:32:04.782Z,25.01
2023-05-21T12:34:49.916Z,24.99
2023-05-21T12:37:30.207Z,24.88
2023-05-21T12:40:08.777Z,24.73
2023-05-21T12:42:40.856Z,24.58
2023-05-21T12:45:13.217Z,24.44
2023-05-21T12:47:49.996Z,24.25
2023-05-21T12:50:22.440Z,24.11
2023-05-21T12:52:58.226Z,23.98
2023-05-21T12:55:30.525Z,23.90
2023-05-21T12:58:08.881Z,23.81
2023-05-21T13:00:44.207Z,23.76
2023-05-21T13:03:16.693Z,23.73
2023-05-21T13:05:48.539Z,23.73
2023-05-21T13:08:20.418Z,23.72
2023-05-21T13:10:52.202Z,23.73
2023-05-21T13:13:24.817Z,23.69
2023-05-21T13:15:56.773Z,23.62
2023-05-21T13:18:28.477Z,23.57
2023-05-21T13:21:00.666Z,23.57
2023-05-21T13:23:33.083Z,23.60
2023-05-21T13:26:05.268Z,23.65
2023-05-21T13:28:38.239Z,23.62
2023-05-21T13:31:12.369Z,23.55
2023-05-21T13:33:44.410Z,23.46
2023-05-21T13:36:16.234Z,23.36
2023-05-21T13:38:48.016Z,23.23
2023-05-21T13:41:19.836Z,23.19
2023-05-21T13:43:52.019Z,23.19
2023-05-21T13:46:23.910Z,23.21
2023-05-21T13:48:56.047Z,23.30
2023-05-21T13:51:38.581Z,23.43
2023-05-21T13:54:01.450Z,23.57
2023-05-21T13:56:34.026Z,23.67
2023-05-21T13:59:05.945Z,23.74
2023-05-21T14:01:38.004Z,23.79
2023-05-21T14:04:09.727Z,23.78
2023-05-21T14:06:42.356Z,23.76
2023-05-21T14:09:14.277Z,23.77
2023-05-21T14:11:46.908Z,23.75
2023-05-21T14:14:19.226Z,23.72
2023-05-21T14:16:51.605Z,23.68
2023-05-21T14:19:23.810Z,23.66
2023-05-21T14:21:56.919Z,23.65
2023-05-21T14:24:28.956Z,23.60
2023-05-21T14:27:00.682Z,23.55
2023-05-21T14:29:33.416Z,23.49
2023-05-21T14:32:05.296Z,23.43
2023-05-21T14:34:38.659Z,23.41
2023-05-21T14:37:10.547Z,23.39
2023-05-21T14:39:46.014Z,23.37
2023-05-21T14:42:17.808Z,23.34
2023-05-21T14:44:49.709Z,23.35
2023-05-21T14:47:21.557Z,23.35
2023-05-21T14:49:53.354Z,23.35
2023-05-21T14:52:27.872Z,23.33
2023-05-21T14:55:01.561Z,23.30
2023-05-21T14:57:35.302Z,23.26
2023-05-21T15:00:08.839Z,23.25
2023-05-21T15:02:44.123Z,23.24
2023-05-21T15:05:16.102Z,23.19
2023-05-21T15:07:48.435Z,23.14
2023-05-21T15:10:20.179Z,23.08
2023-05-21T15:12:52.150Z,23.03
2023-05-21T15:15:24.039Z,22.96
2023-05-21T15:17:57.525Z,22.88
2023-05-21T15:20:29.644Z,22.76
2023-05-21T15:25:35.082Z,22.61
2023-05-21T15:28:07.206Z,22.52
2023-05-21T15:30:39.091Z,22.43
2023-05-21T15:33:11.341Z,22.37
2023-05-21T15:35:43.676Z,22.29
2023-05-21T15:38:15.985Z,22.21
2023-05-21T15:40:48.881Z,22.14
2023-05-21T15:43:20.782Z,22.03
2023-05-21T15:45:52.420Z,21.95
2023-05-21T15:48:24.467Z,21.84
2023-05-21T15:50:56.609Z,21.74
2023-05-21T15:53:28.431Z,21.65
2023-05-21T15:56:00.327Z,21.58
2023-05-21T15:58:32.565Z,21.49
2023-05-21T16:01:04.577Z,21.40
2023-05-21T16:03:37.035Z,21.31
2023-05-21T16:06:10.576Z,21.22
2023-05-21T16:08:43.063Z,21.14
2023-05-21T16:11:15.087Z,21.05
2023-05-21T16:13:46.927Z,20.96
2023-05-21T16:16:18.764Z,20.89
2023-05-21T16:18:50.930Z,20.78
2023-05-21T16:21:22.806Z,20.70
2023-05-21T16:23:54.739Z,20.66
2023-05-21T16:26:26.619Z,20.59
2023-05-21T16:28:58.937Z,20.49
2023-05-21T16:31:31.324Z,20.38
2023-05-21T16:34:03.077Z,20.27
2023-05-21T16:36:35.504Z,20.16
2023-05-21T16:39:07.723Z,20.06
2023-05-21T16:41:39.753Z,19.97
2023-05-21T16:44:11.809Z,19.93
2023-05-21T16:46:43.890Z,19.87
2023-05-21T16:49:15.889Z,19.81
2023-05-21T16:51:47.892Z,19.73
2023-05-21T16:54:19.701Z,19.71
2023-05-21T16:56:51.529Z,19.69
2023-05-21T16:59:23.295Z,19.64
2023-05-21T17:01:55.028Z,19.50
2023-05-21T17:04:26.817Z,19.37
2023-05-21T17:06:58.729Z,19.26
2023-05-21T17:09:30.535Z,19.22
2023-05-21T17:12:02.246Z,19.11
2023-05-21T17:14:35.812Z,19.03
2023-05-21T17:17:08.034Z,18.96
2023-05-21T17:19:39.969Z,18.91
2023-05-21T17:22:11.793Z,18.83
2023-05-21T17:24:43.894Z,18.77
2023-05-21T17:27:16.529Z,18.67
2023-05-21T17:29:48.293Z,18.63
2023-05-21T17:32:21.145Z,18.55
2023-05-21T17:34:53.967Z,18.45
2023-05-21T17:37:25.730Z,18.37
2023-05-21T17:39:58.018Z,18.34
2023-05-21T17:42:29.720Z,18.34
2023-05-21T17:45:01.519Z,18.35
2023-05-21T17:47:34.676Z,18.33
2023-05-21T17:50:07.705Z,18.31
2023-05-21T17:52:40.013Z,18.33
2023-05-21T17:55:11.941Z,18.32
2023-05-21T17:57:43.670Z,18.19
2023-05-21T18:00:15.682Z,18.04
2023-05-21T18:02:46.697Z,17.98
2023-05-21T18:05:18.966Z,18.03
2023-05-21T18:07:50.964Z,18.11
2023-05-21T18:10:22.838Z,18.17
2023-05-21T18:12:54.865Z,18.18
2023-05-21T18:15:26.592Z,18.19
2023-05-21T18:17:58.403Z,18.10
2023-05-21T18:20:30.311Z,18.05
2023-05-21T18:23:02.027Z,18.02
2023-05-21T18:25:35.872Z,18.02
2023-05-21T18:28:08.173Z,18.02
2023-05-21T18:30:40.311Z,18.01
2023-05-21T18:33:15.422Z,17.99
2023-05-21T18:35:47.416Z,17.93
2023-05-21T18:38:19.185Z,17.91
2023-05-21T18:40:52.753Z,17.88
2023-05-21T18:43:25.323Z,17.85
2023-05-21T18:45:57.494Z,17.80
2023-05-21T18:48:29.362Z,17.77
2023-05-21T18:51:01.699Z,17.73
2023-05-21T18:53:33.582Z,17.68
2023-05-21T18:56:07.158Z,17.64
2023-05-21T18:58:38.948Z,17.57
2023-05-21T19:01:11.040Z,17.57
2023-05-21T19:03:43.066Z,17.58
2023-05-21T19:06:14.801Z,17.57
2023-05-21T19:08:46.750Z,17.55
2023-05-21T19:11:19.058Z,17.51
2023-05-21T19:13:51.227Z,17.51
2023-05-21T19:16:23.054Z,17.44
2023-05-21T19:18:54.913Z,17.42
2023-05-21T19:21:26.791Z,17.39
2023-05-21T19:23:58.593Z,17.38
2023-05-21T19:26:30.640Z,17.38
2023-05-21T19:29:02.353Z,17.39
2023-05-21T19:31:34.256Z,17.36
2023-05-21T19:34:07.677Z,17.39
2023-05-21T19:36:51.961Z,17.40
2023-05-21T19:39:13.495Z,17.39
2023-05-21T19:41:45.357Z,17.41
2023-05-21T19:44:17.504Z,17.43
2023-05-21T19:46:50.098Z,17.44
2023-05-21T19:49:21.826Z,17.48
2023-05-21T19:51:54.958Z,17.47
2023-05-21T19:54:27.821Z,17.48
2023-05-21T19:56:59.606Z,17.51
2023-05-21T19:59:31.636Z,17.48
2023-05-21T20:02:03.988Z,17.47
2023-05-21T20:04:36.311Z,17.47
2023-05-21T20:07:08.157Z,17.49
2023-05-21T20:09:40.786Z,17.51
2023-05-21T20:12:12.589Z,17.52
2023-05-21T20:14:46.263Z,17.56
2023-05-21T20:17:21.281Z,17.56
2023-05-21T20:19:53.145Z,17.57
2023-05-21T20:22:24.835Z,17.60
2023-05-21T20:24:56.636Z,17.62
2023-05-21T20:27:28.588Z,17.62
2023-05-21T20:30:00.296Z,17.61
2023-05-21T20:32:32.842Z,17.60
2023-05-21T20:35:05.207Z,17.57
2023-05-21T20:37:37.014Z,17.49
2023-05-21T20:40:11.696Z,17.45
2023-05-21T20:42:45.255Z,17.45
2023-05-21T20:45:17.269Z,17.45
2023-05-21T20:47:50.258Z,17.46
2023-05-21T20:50:23.878Z,17.38
2023-05-21T20:52:55.866Z,17.34
2023-05-21T20:55:27.610Z,17.34
2023-05-21T20:57:59.481Z,17.32
2023-05-21T21:00:31.937Z,17.35
2023-05-21T21:03:04.124Z,17.35
2023-05-21T21:05:36.010Z,17.29
2023-05-21T21:08:08.428Z,17.28
2023-05-21T21:10:42.587Z,17.32
2023-05-21T21:13:15.285Z,17.32
2023-05-21T21:15:47.111Z,17.35
2023-05-21T21:18:19.088Z,17.33
2023-05-21T21:20:51.618Z,17.33
2023-05-21T21:23:25.412Z,17.33
2023-05-21T21:25:57.795Z,17.33
2023-05-21T21:28:29.877Z,17.33
2023-05-21T21:31:01.748Z,17.31
2023-05-21T21:33:33.959Z,17.28
2023-05-21T21:36:06.720Z,17.27
2023-05-21T21:38:38.565Z,17.26
2023-05-21T21:41:10.454Z,17.23
2023-05-21T21:43:42.352Z,17.24
2023-05-21T21:46:14.385Z,17.26
2023-05-21T21:48:46.307Z,17.24
2023-05-21T21:51:18.344Z,17.22
2023-05-21T21:53:50.796Z,17.21
2023-05-21T21:56:22.809Z,17.21
2023-05-21T21:58:54.584Z,17.20
2023-05-21T22:01:26.566Z,17.18
2023-05-21T22:03:58.473Z,17.17
2023-05-21T22:06:30.186Z,17.14
2023-05-21T22:09:02.798Z,17.13
2023-05-21T22:11:34.676Z,17.12
2023-05-21T22:14:06.940Z,17.11
2023-05-21T22:16:39.351Z,17.11
2023-05-21T22:19:13.090Z,17.10
2023-05-21T22:21:46.635Z,17.11
2023-05-21T22:24:31.549Z,17.12
2023-05-21T22:26:51.989Z,17.10
2023-05-21T22:29:23.987Z,17.08
2023-05-21T22:31:55.907Z,17.06
2023-05-21T22:34:27.859Z,17.04
2023-05-21T22:36:59.658Z,16.99
2023-05-21T22:39:31.664Z,16.98
2023-05-21T22:42:03.682Z,16.96
2023-05-21T22:44:35.973Z,16.92
2023-05-21T22:47:09.595Z,16.92
2023-05-21T22:49:41.766Z,16.94
2023-05-21T22:52:14.770Z,16.97
2023-05-21T22:54:46.530Z,16.96
2023-05-21T22:57:18.704Z,16.96
2023-05-21T22:59:50.599Z,16.95
2023-05-21T23:02:22.614Z,16.94
2023-05-21T23:04:54.758Z,16.96
2023-05-21T23:07:26.510Z,16.97
2023-05-21T23:09:58.260Z,16.98
2023-05-21T23:12:30.040Z,16.97
2023-05-21T23:15:03.657Z,16.93
2023-05-21T23:17:36.148Z,16.88
2023-05-21T23:20:09.327Z,16.89
2023-05-21T23:22:41.198Z,16.89
2023-05-21T23:25:13.095Z,16.86
2023-05-21T23:27:45.530Z,16.85
2023-05-21T23:30:17.821Z,16.86
2023-05-21T23:32:49.679Z,16.87
2023-05-21T23:35:21.617Z,16.87
2023-05-21T23:37:53.544Z,16.89
2023-05-21T23:40:25.287Z,16.88
2023-05-21T23:42:57.210Z,16.87
2023-05-21T23:45:28.978Z,16.85
2023-05-21T23:48:00.767Z,16.81
2023-05-21T23:50:33.149Z,16.81
2023-05-21T23:53:05.307Z,16.83
2023-05-21T23:55:37.265Z,16.85
2023-05-21T23:58:09.119Z,16.85
